Time;durP1;ratioP1;P1;durP2;ratioP2;P2;SDS_P1;SDS_P2;PMS_P1;PMS_P2;Temp;Humidity;BMP_temperature;BMP_pressure;BME280_temperature;BME280_humidity;BME280_pressure;Samples;Min_cycle;Max_cycle;Signal;HPM_P1;HPM_P2
2023/05/05 00:00:17;;;;;;;;;;;13.20;99.90;;;;;;4961853;28;19923;-66
2023/05/05 00:02:42;;;;;;;;;;;13.10;99.90;;;;;;4963019;28;19946;-66
2023/05/05 00:05:08;;;;;;;;;;;13.00;99.90;;;;;;4969092;28;20004;-65
2023/05/05 00:07:33;;;;;;;;;;;13.00;99.90;;;;;;4968119;28;19917;-66
2023/05/05 00:09:59;;;;;;;;;;;13.00;99.90;;;;;;4961274;28;19914;-66
2023/05/05 00:12:24;;;;;;;;;;;13.10;99.90;;;;;;4968640;28;20386;-65
2023/05/05 00:14:50;;;;;;;;;;;13.10;99.90;;;;;;4969021;28;19922;-65
2023/05/05 00:17:15;;;;;;;;;;;13.10;99.90;;;;;;4965672;28;19922;-65
2023/05/05 00:19:41;;;;;;;;;;;13.10;99.90;;;;;;4961993;28;20058;-66
2023/05/05 00:22:07;;;;;;;;;;;13.10;99.90;;;;;;4966914;28;19918;-65
2023/05/05 00:24:32;;;;;;;;;;;13.10;99.90;;;;;;4966665;28;19921;-65
2023/05/05 00:26:58;;;;;;;;;;;13.10;99.90;;;;;;4969821;28;19914;-65
2023/05/05 00:29:23;;;;;;;;;;;13.00;99.90;;;;;;4961569;28;19918;-66
2023/05/05 00:31:50;;;;;;;;;;;13.00;99.90;;;;;;4961579;28;19984;-67
2023/05/05 00:34:16;;;;;;;;;;;13.00;99.90;;;;;;4965883;28;19959;-68
2023/05/05 00:36:41;;;;;;;;;;;13.00;99.90;;;;;;4967742;28;19922;-67
2023/05/05 00:39:07;;;;;;;;;;;13.00;99.90;;;;;;4967721;28;19914;-67
2023/05/05 00:41:32;;;;;;;;;;;13.00;99.90;;;;;;4967738;28;19918;-67
2023/05/05 00:43:58;;;;;;;;;;;13.00;99.90;;;;;;4968420;28;20727;-68
2023/05/05 00:46:28;;;;;;;;;;;12.90;99.90;;;;;;4965211;28;19921;-66
2023/05/05 00:48:54;;;;;;;;;;;12.90;99.90;;;;;;4965481;28;19968;-65
2023/05/05 00:51:19;;;;;;;;;;;12.80;99.90;;;;;;4964966;28;19926;-66
2023/05/05 00:53:46;;;;;;;;;;;12.70;99.90;;;;;;4965885;28;19942;-65
2023/05/05 00:56:11;;;;;;;;;;;12.50;99.90;;;;;;4966544;28;19925;-63
2023/05/05 00:58:37;;;;;;;;;;;12.40;99.90;;;;;;4967144;28;20815;-65
2023/05/05 01:01:03;;;;;;;;;;;12.40;99.90;;;;;;4956762;28;20413;-66
2023/05/05 01:03:28;;;;;;;;;;;12.40;99.90;;;;;;4965662;28;20016;-66
2023/05/05 01:06:09;;;;;;;;;;;12.30;99.90;;;;;;4966677;28;19918;-65
2023/05/05 01:08:43;;;;;;;;;;;12.20;99.90;;;;;;4972130;28;19981;-67
2023/05/05 01:11:13;;;;;;;;;;;12.30;99.90;;;;;;4971966;28;20555;-66
2023/05/05 01:13:38;;;;;;;;;;;12.30;99.90;;;;;;4968774;28;19926;-67
2023/05/05 01:16:17;;;;;;;;;;;12.30;99.90;;;;;;4967417;28;19925;-66
2023/05/05 01:18:52;;;;;;;;;;;12.40;99.90;;;;;;4970517;28;20753;-66
2023/05/05 01:21:26;;;;;;;;;;;12.40;99.90;;;;;;4971818;28;19936;-67
2023/05/05 01:24:04;;;;;;;;;;;12.40;99.90;;;;;;4968551;28;20479;-66
2023/05/05 01:26:29;;;;;;;;;;;12.40;99.90;;;;;;4963613;28;20620;-67
2023/05/05 01:29:10;;;;;;;;;;;12.40;99.90;;;;;;4969451;28;20425;-67
2023/05/05 01:31:52;;;;;;;;;;;12.50;99.90;;;;;;4956813;28;19918;-67
2023/05/05 01:34:30;;;;;;;;;;;12.40;99.90;;;;;;4966565;28;19977;-67
2023/05/05 01:37:28;;;;;;;;;;;12.40;99.90;;;;;;4972024;28;19926;-67
2023/05/05 01:39:58;;;;;;;;;;;12.30;99.90;;;;;;4986190;28;19993;-67
2023/05/05 01:42:25;;;;;;;;;;;12.30;99.90;;;;;;4966223;28;19918;-66
2023/05/05 01:44:51;;;;;;;;;;;12.30;99.90;;;;;;4973686;28;19940;-65
2023/05/05 01:47:17;;;;;;;;;;;12.30;99.90;;;;;;4970631;28;20924;-65
2023/05/05 01:49:45;;;;;;;;;;;12.30;99.90;;;;;;4970778;28;19914;-66
2023/05/05 01:52:12;;;;;;;;;;;12.30;99.90;;;;;;4972155;28;19914;-65
2023/05/05 01:54:38;;;;;;;;;;;12.20;99.90;;;;;;4971791;28;19926;-65
2023/05/05 01:57:05;;;;;;;;;;;12.20;99.90;;;;;;4971455;28;19917;-66
2023/05/05 01:59:31;;;;;;;;;;;12.20;99.90;;;;;;4973711;28;20009;-65
2023/05/05 02:01:58;;;;;;;;;;;12.10;99.90;;;;;;4966729;28;19964;-66
2023/05/05 02:04:26;;;;;;;;;;;12.10;99.90;;;;;;4972932;28;20359;-65
2023/05/05 02:06:52;;;;;;;;;;;12.10;99.90;;;;;;4969665;28;20004;-66
2023/05/05 02:09:18;;;;;;;;;;;12.00;99.90;;;;;;4970041;28;19914;-66
2023/05/05 02:11:44;;;;;;;;;;;12.00;99.90;;;;;;4971058;28;20410;-66
2023/05/05 02:14:10;;;;;;;;;;;12.00;99.90;;;;;;4971890;28;19932;-66
2023/05/05 02:16:36;;;;;;;;;;;11.90;99.90;;;;;;4972298;28;20433;-66
2023/05/05 02:19:05;;;;;;;;;;;11.80;99.90;;;;;;4968762;28;19957;-66
2023/05/05 02:21:32;;;;;;;;;;;11.70;99.90;;;;;;4969836;28;19943;-66
2023/05/05 02:23:58;;;;;;;;;;;11.50;99.90;;;;;;4973782;28;19969;-66
2023/05/05 02:26:23;;;;;;;;;;;11.40;99.90;;;;;;4969559;28;20036;-66
2023/05/05 02:28:49;;;;;;;;;;;11.30;99.90;;;;;;4967458;28;19953;-65
2023/05/05 02:31:16;;;;;;;;;;;11.20;99.90;;;;;;4958867;28;19933;-65
2023/05/05 02:33:42;;;;;;;;;;;11.20;99.90;;;;;;4969857;28;19926;-65
2023/05/05 02:36:13;;;;;;;;;;;11.10;99.90;;;;;;4971648;28;20014;-65
2023/05/05 02:38:43;;;;;;;;;;;11.10;99.90;;;;;;4966854;28;20508;-65
2023/05/05 02:41:12;;;;;;;;;;;11.10;99.90;;;;;;4975967;28;20338;-66
2023/05/05 02:43:39;;;;;;;;;;;11.00;99.90;;;;;;4973877;28;19922;-65
2023/05/05 02:46:05;;;;;;;;;;;11.00;99.90;;;;;;4973274;28;19941;-65
2023/05/05 02:48:31;;;;;;;;;;;11.00;99.90;;;;;;4967327;28;19914;-65
2023/05/05 02:50:56;;;;;;;;;;;10.90;99.90;;;;;;4974953;28;20548;-65
2023/05/05 02:53:24;;;;;;;;;;;10.90;99.90;;;;;;4973227;28;20430;-65
2023/05/05 02:55:51;;;;;;;;;;;10.80;99.90;;;;;;4972710;28;20398;-65
2023/05/05 02:58:28;;;;;;;;;;;10.70;99.90;;;;;;4968982;28;20016;-65
2023/05/05 03:01:09;;;;;;;;;;;10.70;99.90;;;;;;4964584;28;19917;-65
2023/05/05 03:03:38;;;;;;;;;;;10.60;99.90;;;;;;4968812;28;19918;-65
2023/05/05 03:06:10;;;;;;;;;;;10.50;99.90;;;;;;4976235;28;19953;-65
2023/05/05 03:08:41;;;;;;;;;;;10.50;99.90;;;;;;4972842;28;19953;-65
2023/05/05 03:11:10;;;;;;;;;;;10.50;99.90;;;;;;4969487;28;19917;-65
2023/05/05 03:13:38;;;;;;;;;;;10.40;99.90;;;;;;4975003;28;20394;-65
2023/05/05 03:16:05;;;;;;;;;;;10.50;99.90;;;;;;4970737;28;19917;-65
2023/05/05 03:18:31;;;;;;;;;;;10.40;99.90;;;;;;4970733;28;19955;-65
2023/05/05 03:20:57;;;;;;;;;;;10.40;99.90;;;;;;4970028;28;20024;-66
2023/05/05 03:23:23;;;;;;;;;;;10.40;99.90;;;;;;4973875;28;19933;-65
2023/05/05 03:25:50;;;;;;;;;;;10.40;99.90;;;;;;4972061;28;20413;-66
2023/05/05 03:28:16;;;;;;;;;;;10.30;99.90;;;;;;4970031;28;20659;-66
2023/05/05 03:30:43;;;;;;;;;;;10.40;99.90;;;;;;4962199;28;20429;-66
2023/05/05 03:33:11;;;;;;;;;;;10.30;99.90;;;;;;4967208;28;19924;-66
2023/05/05 03:35:37;;;;;;;;;;;10.30;99.90;;;;;;4970149;28;19929;-66
2023/05/05 03:38:02;;;;;;;;;;;10.30;99.90;;;;;;4971473;28;19917;-66
2023/05/05 03:40:28;;;;;;;;;;;10.20;99.90;;;;;;4972326;28;20051;-66
2023/05/05 03:42:53;;;;;;;;;;;10.10;99.90;;;;;;4972781;28;20487;-65
2023/05/05 03:45:19;;;;;;;;;;;10.10;99.90;;;;;;4972783;28;20354;-66
2023/05/05 03:47:44;;;;;;;;;;;10.00;99.90;;;;;;4969801;28;19955;-66
2023/05/05 03:50:10;;;;;;;;;;;10.00;99.90;;;;;;4964306;28;19918;-66
2023/05/05 03:52:35;;;;;;;;;;;10.00;99.90;;;;;;4972116;28;19921;-66
2023/05/05 03:55:01;;;;;;;;;;;10.10;99.90;;;;;;4970577;28;20034;-66
2023/05/05 03:57:26;;;;;;;;;;;10.10;99.90;;;;;;4968680;28;19917;-66
2023/05/05 03:59:52;;;;;;;;;;;10.30;99.90;;;;;;4973219;28;20413;-66
2023/05/05 04:02:18;;;;;;;;;;;10.30;99.90;;;;;;4961566;28;19914;-66
2023/05/05 04:04:44;;;;;;;;;;;10.30;99.90;;;;;;4964395;28;19972;-66
2023/05/05 04:07:10;;;;;;;;;;;10.30;99.90;;;;;;4971358;28;20032;-65
2023/05/05 04:09:35;;;;;;;;;;;10.20;99.90;;;;;;4971188;28;19914;-65
2023/05/05 04:12:01;;;;;;;;;;;10.10;99.90;;;;;;4968261;28;20366;-65
2023/05/05 04:14:27;;;;;;;;;;;10.10;99.90;;;;;;4972244;28;19926;-65
2023/05/05 04:16:53;;;;;;;;;;;10.20;99.90;;;;;;4970435;28;19922;-66
2023/05/05 04:19:19;;;;;;;;;;;10.20;99.90;;;;;;4969957;28;19922;-65
2023/05/05 04:21:44;;;;;;;;;;;10.20;99.90;;;;;;4971124;28;20379;-65
2023/05/05 04:24:10;;;;;;;;;;;10.30;99.90;;;;;;4974433;28;19957;-65
2023/05/05 04:26:36;;;;;;;;;;;10.40;99.90;;;;;;4966480;28;19913;-65
2023/05/05 04:29:01;;;;;;;;;;;10.50;99.90;;;;;;4972279;28;19993;-66
2023/05/05 04:31:27;;;;;;;;;;;10.50;99.90;;;;;;4959331;28;20132;-65
2023/05/05 04:33:52;;;;;;;;;;;10.50;99.90;;;;;;4971241;28;20410;-65
2023/05/05 04:36:18;;;;;;;;;;;10.50;99.90;;;;;;4969699;28;19925;-66
2023/05/05 04:38:43;;;;;;;;;;;10.50;99.90;;;;;;4973655;28;20021;-66
2023/05/05 04:41:09;;;;;;;;;;;10.50;99.90;;;;;;4970786;28;20349;-60
2023/05/05 04:43:34;;;;;;;;;;;10.50;99.90;;;;;;4975709;28;20020;-64
2023/05/05 04:46:00;;;;;;;;;;;10.60;99.90;;;;;;4974861;28;19921;-65
2023/05/05 04:48:26;;;;;;;;;;;10.70;99.90;;;;;;4974926;28;20334;-65
2023/05/05 04:50:51;;;;;;;;;;;10.80;99.90;;;;;;4975971;28;20682;-65
2023/05/05 04:53:17;;;;;;;;;;;10.80;99.90;;;;;;4975186;28;19952;-64
2023/05/05 04:55:42;;;;;;;;;;;10.90;99.90;;;;;;4969084;28;19921;-65
2023/05/05 04:58:08;;;;;;;;;;;11.00;99.90;;;;;;4978435;28;19929;-65
2023/05/05 05:00:34;;;;;;;;;;;11.10;99.90;;;;;;4976115;28;19945;-65
2023/05/05 05:03:00;;;;;;;;;;;11.20;99.90;;;;;;4967479;28;20014;-65
2023/05/05 05:05:25;;;;;;;;;;;11.30;99.90;;;;;;4972998;28;19917;-65
2023/05/05 05:07:51;;;;;;;;;;;11.30;99.90;;;;;;4973474;28;19953;-64
2023/05/05 05:10:17;;;;;;;;;;;11.40;99.90;;;;;;4975951;28;19918;-65
2023/05/05 05:12:42;;;;;;;;;;;11.60;99.90;;;;;;4974214;28;20340;-66
2023/05/05 05:15:08;;;;;;;;;;;11.70;99.90;;;;;;4970935;28;19936;-66
2023/05/05 05:17:34;;;;;;;;;;;11.80;99.90;;;;;;4975540;28;19924;-66
2023/05/05 05:20:03;;;;;;;;;;;11.90;99.90;;;;;;4969635;28;19941;-66
2023/05/05 05:22:29;;;;;;;;;;;12.10;99.90;;;;;;4973135;28;19918;-66
2023/05/05 05:24:54;;;;;;;;;;;12.30;99.90;;;;;;4968645;28;20284;-67
2023/05/05 05:27:20;;;;;;;;;;;12.30;99.90;;;;;;4963468;28;19921;-67
2023/05/05 05:29:45;;;;;;;;;;;12.40;99.90;;;;;;4971991;28;20275;-66
2023/05/05 05:32:11;;;;;;;;;;;12.50;99.90;;;;;;4961920;28;19922;-66
2023/05/05 05:34:37;;;;;;;;;;;12.60;99.90;;;;;;4960820;28;20609;-66
2023/05/05 05:37:02;;;;;;;;;;;12.60;99.90;;;;;;4968230;28;19922;-66
2023/05/05 05:39:28;;;;;;;;;;;12.70;99.90;;;;;;4964797;28;20800;-66
2023/05/05 05:41:53;;;;;;;;;;;12.80;99.90;;;;;;4964680;28;20334;-66
2023/05/05 05:44:19;;;;;;;;;;;12.90;99.90;;;;;;4970531;28;19917;-66
2023/05/05 05:46:44;;;;;;;;;;;13.10;99.90;;;;;;4949288;28;19956;-66
2023/05/05 05:49:10;;;;;;;;;;;13.20;99.90;;;;;;4970082;28;20371;-66
2023/05/05 05:51:35;;;;;;;;;;;13.30;99.90;;;;;;4971766;28;19917;-65
2023/05/05 05:54:01;;;;;;;;;;;13.40;99.90;;;;;;4969560;28;19918;-66
2023/05/05 05:56:26;;;;;;;;;;;13.60;99.90;;;;;;4967274;28;19917;-66
2023/05/05 05:58:52;;;;;;;;;;;13.80;99.90;;;;;;4973727;28;20466;-66
2023/05/05 06:01:17;;;;;;;;;;;14.00;99.90;;;;;;4978082;28;20384;-64
2023/05/05 06:03:43;;;;;;;;;;;14.20;99.90;;;;;;4970214;28;19918;-64
2023/05/05 06:06:08;;;;;;;;;;;14.30;99.90;;;;;;4975891;28;19918;-65
2023/05/05 06:08:34;;;;;;;;;;;14.50;99.90;;;;;;4972085;28;21054;-65
2023/05/05 06:10:59;;;;;;;;;;;14.70;99.90;;;;;;4971487;28;19917;-65
2023/05/05 06:13:25;;;;;;;;;;;14.80;99.90;;;;;;4970146;28;19926;-64
2023/05/05 06:15:51;;;;;;;;;;;14.90;99.90;;;;;;4974143;28;19917;-64
2023/05/05 06:18:16;;;;;;;;;;;15.00;99.90;;;;;;4976835;28;19917;-65
2023/05/05 06:20:42;;;;;;;;;;;15.10;99.90;;;;;;4975841;28;19968;-64
2023/05/05 06:23:07;;;;;;;;;;;15.20;99.90;;;;;;4974948;28;19918;-65
2023/05/05 06:25:33;;;;;;;;;;;15.30;99.90;;;;;;4974050;28;19922;-65
2023/05/05 06:27:59;;;;;;;;;;;15.40;99.90;;;;;;4969663;28;20294;-65
2023/05/05 06:30:25;;;;;;;;;;;15.50;99.90;;;;;;4971123;28;19926;-65
2023/05/05 06:32:50;;;;;;;;;;;15.50;99.90;;;;;;4974960;28;19936;-65
2023/05/05 06:35:16;;;;;;;;;;;15.70;99.90;;;;;;4964643;28;20154;-65
2023/05/05 06:37:42;;;;;;;;;;;15.80;99.90;;;;;;4970246;28;19917;-65
2023/05/05 06:40:09;;;;;;;;;;;15.80;99.90;;;;;;4970232;28;19925;-65
2023/05/05 06:42:35;;;;;;;;;;;16.00;99.90;;;;;;4974741;28;19925;-65
2023/05/05 06:45:00;;;;;;;;;;;16.10;99.90;;;;;;4976468;28;20375;-65
2023/05/05 06:47:26;;;;;;;;;;;16.20;99.90;;;;;;4961547;28;19922;-65
2023/05/05 06:49:52;;;;;;;;;;;16.20;99.90;;;;;;4967195;28;19964;-65
2023/05/05 06:52:17;;;;;;;;;;;16.20;99.90;;;;;;4972845;28;20581;-65
2023/05/05 06:54:43;;;;;;;;;;;16.30;99.90;;;;;;4959679;28;20024;-65
2023/05/05 06:57:08;;;;;;;;;;;16.30;99.90;;;;;;4972426;28;19922;-65
2023/05/05 06:59:34;;;;;;;;;;;16.30;99.90;;;;;;4971075;28;20314;-66
2023/05/05 07:01:59;;;;;;;;;;;16.40;99.90;;;;;;4970418;28;19944;-67
2023/05/05 07:04:25;;;;;;;;;;;16.50;99.90;;;;;;4969160;28;19953;-67
2023/05/05 07:06:51;;;;;;;;;;;16.60;99.90;;;;;;4971133;28;19920;-66
2023/05/05 07:09:17;;;;;;;;;;;16.70;99.90;;;;;;4954901;28;19926;-66
2023/05/05 07:11:43;;;;;;;;;;;16.70;99.90;;;;;;4961325;28;20012;-66
2023/05/05 07:14:08;;;;;;;;;;;16.90;99.90;;;;;;4965212;28;19921;-66
2023/05/05 07:16:35;;;;;;;;;;;17.00;99.90;;;;;;4965690;28;21379;-66
2023/05/05 07:19:04;;;;;;;;;;;17.20;99.90;;;;;;4965455;28;19969;-65
2023/05/05 07:21:30;;;;;;;;;;;17.30;99.90;;;;;;4969561;28;19970;-65
2023/05/05 07:23:55;;;;;;;;;;;17.40;99.90;;;;;;4966525;28;19929;-65
2023/05/05 07:26:21;;;;;;;;;;;17.60;99.90;;;;;;4966935;28;19922;-65
2023/05/05 07:28:47;;;;;;;;;;;17.70;99.90;;;;;;4965602;28;19921;-65
2023/05/05 07:31:12;;;;;;;;;;;17.80;99.90;;;;;;4967427;28;19918;-65
2023/05/05 07:33:38;;;;;;;;;;;17.80;99.90;;;;;;4964252;28;19976;-65
2023/05/05 07:36:03;;;;;;;;;;;17.80;99.90;;;;;;4958457;28;19917;-66
2023/05/05 07:38:29;;;;;;;;;;;17.80;99.90;;;;;;4965153;28;20420;-66
2023/05/05 07:40:54;;;;;;;;;;;17.70;99.90;;;;;;4966509;28;19917;-67
2023/05/05 07:43:20;;;;;;;;;;;17.70;99.90;;;;;;4951734;28;19918;-66
2023/05/05 07:45:45;;;;;;;;;;;17.60;99.90;;;;;;4964083;28;20044;-66
2023/05/05 07:48:11;;;;;;;;;;;17.60;99.90;;;;;;4960999;28;20699;-66
2023/05/05 07:50:36;;;;;;;;;;;17.50;99.90;;;;;;4967105;28;19922;-66
2023/05/05 07:53:02;;;;;;;;;;;17.60;99.90;;;;;;4969077;28;21089;-66
2023/05/05 07:55:27;;;;;;;;;;;17.60;99.90;;;;;;4955068;28;20409;-62
2023/05/05 07:57:53;;;;;;;;;;;17.70;99.90;;;;;;4966294;28;19925;-66
2023/05/05 08:00:18;;;;;;;;;;;17.70;99.90;;;;;;4961638;28;20821;-67
2023/05/05 08:02:44;;;;;;;;;;;17.80;99.90;;;;;;4963924;28;19917;-66
2023/05/05 08:05:11;;;;;;;;;;;17.90;99.90;;;;;;4961998;28;19918;-66
2023/05/05 08:07:39;;;;;;;;;;;17.90;99.90;;;;;;4969261;28;20344;-66
2023/05/05 08:10:06;;;;;;;;;;;17.90;99.90;;;;;;4962506;28;20441;-66
2023/05/05 08:12:32;;;;;;;;;;;17.90;99.90;;;;;;4965102;28;20032;-66
2023/05/05 08:14:57;;;;;;;;;;;18.00;99.90;;;;;;4967136;28;19930;-66
2023/05/05 08:17:25;;;;;;;;;;;18.10;99.90;;;;;;4966641;28;20208;-65
2023/05/05 08:19:50;;;;;;;;;;;18.20;99.90;;;;;;4969998;28;19976;-65
2023/05/05 08:22:16;;;;;;;;;;;18.40;99.90;;;;;;4962482;28;20021;-65
2023/05/05 08:24:41;;;;;;;;;;;18.40;99.90;;;;;;4963630;28;20361;-65
2023/05/05 08:27:07;;;;;;;;;;;18.40;99.90;;;;;;4967247;28;19922;-64
2023/05/05 08:29:32;;;;;;;;;;;18.30;99.90;;;;;;4964025;28;20450;-64
2023/05/05 08:31:58;;;;;;;;;;;18.30;99.90;;;;;;4968254;28;19917;-65
2023/05/05 08:34:23;;;;;;;;;;;18.30;99.90;;;;;;4969519;28;19925;-66
2023/05/05 08:36:49;;;;;;;;;;;18.40;99.90;;;;;;4970023;28;19917;-66
2023/05/05 08:39:15;;;;;;;;;;;18.60;99.90;;;;;;4966405;28;20406;-66
2023/05/05 08:41:41;;;;;;;;;;;18.70;99.90;;;;;;4965547;28;19969;-66
2023/05/05 08:44:06;;;;;;;;;;;18.70;99.90;;;;;;4963496;28;20032;-67
2023/05/05 08:46:33;;;;;;;;;;;18.40;99.90;;;;;;4968265;28;19918;-66
2023/05/05 08:49:00;;;;;;;;;;;18.30;99.90;;;;;;4959035;28;19918;-66
2023/05/05 08:51:27;;;;;;;;;;;18.20;99.90;;;;;;4959099;28;19922;-66
2023/05/05 08:53:53;;;;;;;;;;;18.30;99.90;;;;;;4961218;28;19929;-67
2023/05/05 08:56:24;;;;;;;;;;;18.60;99.90;;;;;;4959664;28;19918;-66
2023/05/05 08:58:50;;;;;;;;;;;18.70;99.90;;;;;;4959968;28;20372;-66
2023/05/05 09:01:16;;;;;;;;;;;18.70;99.90;;;;;;4959204;28;20353;-66
2023/05/05 09:03:43;;;;;;;;;;;18.80;99.90;;;;;;4960818;28;20567;-66
2023/05/05 09:06:09;;;;;;;;;;;18.90;99.90;;;;;;4962111;28;19921;-66
2023/05/05 09:08:35;;;;;;;;;;;19.00;99.90;;;;;;4965589;28;19914;-66
2023/05/05 09:11:01;;;;;;;;;;;19.10;99.90;;;;;;4974371;28;19948;-66
2023/05/05 09:13:28;;;;;;;;;;;19.20;99.90;;;;;;4973572;28;19916;-66
2023/05/05 09:15:53;;;;;;;;;;;19.30;99.90;;;;;;4968489;28;19933;-66
2023/05/05 09:18:19;;;;;;;;;;;19.20;99.90;;;;;;4969899;28;20474;-66
2023/05/05 09:20:45;;;;;;;;;;;19.10;99.90;;;;;;4966589;28;19926;-66
2023/05/05 09:23:12;;;;;;;;;;;19.20;99.90;;;;;;4966137;28;19918;-66
2023/05/05 09:25:39;;;;;;;;;;;19.30;99.90;;;;;;4969169;28;20009;-66
2023/05/05 09:28:11;;;;;;;;;;;19.50;99.90;;;;;;4968801;28;19914;-66
2023/05/05 09:30:38;;;;;;;;;;;19.70;99.90;;;;;;4977287;28;20054;-66
2023/05/05 09:33:03;;;;;;;;;;;19.80;99.90;;;;;;4972522;28;19921;-66
2023/05/05 09:35:46;;;;;;;;;;;19.70;99.90;;;;;;4973781;28;19930;-66
2023/05/05 09:38:11;;;;;;;;;;;19.70;99.20;;;;;;4970248;28;20623;-66
2023/05/05 09:40:44;;;;;;;;;;;19.60;98.70;;;;;;4967964;28;19918;-66
2023/05/05 09:43:10;;;;;;;;;;;19.60;99.90;;;;;;4953210;28;19922;-67
2023/05/05 09:45:35;;;;;;;;;;;19.80;99.90;;;;;;4959117;28;20220;-67
2023/05/05 09:48:01;;;;;;;;;;;20.00;99.90;;;;;;4959000;28;19937;-66
2023/05/05 09:50:28;;;;;;;;;;;20.10;99.50;;;;;;4957373;28;19961;-67
2023/05/05 09:52:56;;;;;;;;;;;20.10;99.90;;;;;;4968233;28;19980;-65
2023/05/05 09:55:22;;;;;;;;;;;20.30;98.70;;;;;;4960603;28;19936;-66
2023/05/05 09:57:47;;;;;;;;;;;20.30;98.60;;;;;;4963848;28;19924;-67
2023/05/05 10:00:13;;;;;;;;;;;20.20;96.60;;;;;;4951879;28;20048;-66
2023/05/05 10:02:39;;;;;;;;;;;20.00;97.50;;;;;;4963222;28;20242;-67
2023/05/05 10:05:15;;;;;;;;;;;20.00;96.80;;;;;;4964019;28;19925;-67
2023/05/05 10:07:41;;;;;;;;;;;20.10;97.50;;;;;;4974447;28;19918;-67
2023/05/05 10:10:08;;;;;;;;;;;20.20;99.90;;;;;;4961754;28;19917;-67
2023/05/05 10:12:35;;;;;;;;;;;20.30;99.60;;;;;;4963912;28;19968;-66
2023/05/05 10:15:02;;;;;;;;;;;20.40;98.70;;;;;;4964422;28;20017;-66
2023/05/05 10:17:35;;;;;;;;;;;20.30;97.30;;;;;;4963328;28;19970;-65
2023/05/05 10:20:02;;;;;;;;;;;20.30;95.90;;;;;;4968550;28;20291;-65
2023/05/05 10:22:31;;;;;;;;;;;20.30;97.30;;;;;;4972677;28;19925;-65
2023/05/05 10:25:01;;;;;;;;;;;20.40;96.70;;;;;;4965822;28;20332;-65
2023/05/05 10:27:27;;;;;;;;;;;20.40;96.10;;;;;;4968673;28;19922;-66
2023/05/05 10:29:55;;;;;;;;;;;20.40;96.70;;;;;;4966158;28;19925;-66
2023/05/05 10:32:33;;;;;;;;;;;20.40;95.50;;;;;;4959767;28;20582;-66
2023/05/05 10:35:00;;;;;;;;;;;20.40;95.10;;;;;;4950275;28;19922;-66
2023/05/05 10:37:26;;;;;;;;;;;20.50;95.00;;;;;;4963136;28;19926;-66
2023/05/05 10:39:52;;;;;;;;;;;20.60;95.10;;;;;;4962227;28;19918;-66
2023/05/05 10:42:18;;;;;;;;;;;20.50;94.90;;;;;;4968627;28;19920;-67
2023/05/05 10:44:43;;;;;;;;;;;20.50;94.80;;;;;;4965247;28;19914;-67
2023/05/05 10:47:09;;;;;;;;;;;20.50;96.60;;;;;;4966367;28;20596;-67
2023/05/05 10:49:53;;;;;;;;;;;20.70;95.30;;;;;;4965759;28;19914;-66
2023/05/05 10:52:37;;;;;;;;;;;20.80;95.10;;;;;;4957281;28;19937;-67
2023/05/05 10:55:08;;;;;;;;;;;20.90;94.70;;;;;;4971235;28;19933;-66
2023/05/05 10:57:35;;;;;;;;;;;20.90;93.70;;;;;;4968172;28;20001;-66
2023/05/05 11:00:01;;;;;;;;;;;20.90;93.10;;;;;;4967269;28;19926;-66
2023/05/05 11:02:27;;;;;;;;;;;20.90;94.30;;;;;;4961505;28;19961;-66
2023/05/05 11:05:02;;;;;;;;;;;21.00;93.50;;;;;;4954420;28;20379;-66
2023/05/05 11:07:28;;;;;;;;;;;21.00;95.00;;;;;;4961364;28;20327;-66
2023/05/05 11:09:54;;;;;;;;;;;21.10;96.00;;;;;;4958154;28;20088;-66
2023/05/05 11:12:20;;;;;;;;;;;21.30;96.20;;;;;;4963574;28;20446;-66
2023/05/05 11:14:45;;;;;;;;;;;21.40;94.80;;;;;;4962930;28;19932;-66
2023/05/05 11:17:29;;;;;;;;;;;21.30;92.30;;;;;;4966692;28;19922;-67
2023/05/05 11:19:55;;;;;;;;;;;21.20;94.40;;;;;;4956531;28;19929;-67
2023/05/05 11:22:21;;;;;;;;;;;21.30;95.40;;;;;;4966970;28;19959;-66
2023/05/05 11:24:46;;;;;;;;;;;21.50;91.40;;;;;;4964403;28;19922;-67
2023/05/05 11:27:12;;;;;;;;;;;21.30;94.30;;;;;;4966996;28;19933;-66
2023/05/05 11:29:56;;;;;;;;;;;21.50;95.70;;;;;;4947310;28;19918;-66
2023/05/05 11:32:22;;;;;;;;;;;21.70;94.80;;;;;;4958958;28;19918;-66
2023/05/05 11:34:48;;;;;;;;;;;21.80;93.60;;;;;;4950836;28;19933;-66
2023/05/05 11:37:14;;;;;;;;;;;21.80;93.80;;;;;;4967856;28;19953;-66
2023/05/05 11:39:43;;;;;;;;;;;21.80;91.20;;;;;;4971657;28;19997;-66
2023/05/05 11:42:22;;;;;;;;;;;21.70;91.30;;;;;;4972695;28;19921;-66
2023/05/05 11:44:48;;;;;;;;;;;21.60;91.60;;;;;;4966160;28;20623;-66
2023/05/05 11:47:13;;;;;;;;;;;21.80;90.50;;;;;;4973148;28;19922;-65
2023/05/05 11:49:39;;;;;;;;;;;21.80;90.60;;;;;;4972921;28;20277;-66
2023/05/05 11:52:08;;;;;;;;;;;21.80;91.30;;;;;;4969612;28;20553;-67
2023/05/05 11:54:35;;;;;;;;;;;21.90;92.10;;;;;;4968932;28;20284;-67
2023/05/05 11:57:03;;;;;;;;;;;21.90;91.60;;;;;;4971896;28;19918;-67
2023/05/05 11:59:30;;;;;;;;;;;22.00;91.20;;;;;;4973732;28;19922;-67
2023/05/05 12:01:56;;;;;;;;;;;22.00;91.50;;;;;;4964730;28;20410;-66
2023/05/05 12:04:22;;;;;;;;;;;22.00;89.80;;;;;;4956147;28;19941;-66
2023/05/05 12:06:47;;;;;;;;;;;22.00;89.20;;;;;;4955919;28;19930;-66
2023/05/05 12:09:17;;;;;;;;;;;22.00;87.90;;;;;;4962787;28;20405;-66
2023/05/05 12:11:48;;;;;;;;;;;21.90;91.40;;;;;;4966996;28;19972;-66
2023/05/05 12:14:14;;;;;;;;;;;22.00;89.50;;;;;;4962384;28;19934;-66
2023/05/05 12:16:39;;;;;;;;;;;22.00;85.70;;;;;;4972665;28;19996;-66
2023/05/05 12:19:06;;;;;;;;;;;21.90;86.60;;;;;;4968958;28;20159;-65
2023/05/05 12:21:31;;;;;;;;;;;21.80;89.20;;;;;;4970997;28;19922;-65
2023/05/05 12:23:57;;;;;;;;;;;21.90;88.20;;;;;;4966882;28;19941;-65
2023/05/05 12:26:27;;;;;;;;;;;21.90;88.50;;;;;;4972802;28;19918;-66
2023/05/05 12:28:53;;;;;;;;;;;21.90;89.20;;;;;;4969184;28;19943;-67
2023/05/05 12:31:19;;;;;;;;;;;22.00;88.40;;;;;;4955784;28;20020;-65
2023/05/05 12:33:45;;;;;;;;;;;21.80;87.70;;;;;;4957873;28;19930;-65
2023/05/05 12:36:11;;;;;;;;;;;21.70;87.40;;;;;;4947354;28;19917;-65
2023/05/05 12:38:37;;;;;;;;;;;21.70;88.30;;;;;;4961777;28;20389;-65
2023/05/05 12:41:02;;;;;;;;;;;21.80;89.20;;;;;;4968257;28;19918;-65
2023/05/05 12:43:31;;;;;;;;;;;21.80;89.20;;;;;;4960061;28;19965;-65
2023/05/05 12:46:05;;;;;;;;;;;21.80;87.30;;;;;;4956677;28;20028;-65
2023/05/05 12:48:30;;;;;;;;;;;21.70;86.10;;;;;;4954947;28;20523;-65
2023/05/05 12:51:15;;;;;;;;;;;21.70;87.90;;;;;;4960426;28;19975;-67
2023/05/05 12:53:41;;;;;;;;;;;21.70;89.30;;;;;;4957034;28;19949;-66
2023/05/05 12:56:25;;;;;;;;;;;21.80;87.80;;;;;;4957882;28;19926;-66
2023/05/05 12:58:51;;;;;;;;;;;21.80;88.30;;;;;;4961723;28;19964;-66
2023/05/05 13:01:16;;;;;;;;;;;21.80;86.70;;;;;;4961488;28;20136;-66
2023/05/05 13:03:43;;;;;;;;;;;21.70;86.60;;;;;;4956747;28;22330;-67
2023/05/05 13:06:19;;;;;;;;;;;21.70;85.10;;;;;;4952643;28;19965;-66
2023/05/05 13:08:45;;;;;;;;;;;21.70;83.60;;;;;;4967469;28;20004;-65
2023/05/05 13:11:11;;;;;;;;;;;21.70;83.40;;;;;;4972950;28;19921;-65
2023/05/05 13:13:36;;;;;;;;;;;21.90;82.80;;;;;;4964651;28;19922;-65
2023/05/05 13:16:02;;;;;;;;;;;21.90;82.70;;;;;;4961142;28;20007;-65
2023/05/05 13:18:28;;;;;;;;;;;22.00;82.70;;;;;;4957413;28;19921;-65
2023/05/05 13:20:53;;;;;;;;;;;22.10;82.30;;;;;;4967906;28;20187;-65
2023/05/05 13:23:19;;;;;;;;;;;22.20;82.50;;;;;;4963476;28;21092;-65
2023/05/05 13:25:44;;;;;;;;;;;22.30;82.20;;;;;;4963062;28;19929;-65
2023/05/05 13:28:10;;;;;;;;;;;22.40;81.60;;;;;;4956283;28;19922;-65
2023/05/05 13:30:36;;;;;;;;;;;22.50;78.10;;;;;;4975229;28;19918;-65
2023/05/05 13:33:02;;;;;;;;;;;22.50;81.20;;;;;;4971178;28;19930;-65
2023/05/05 13:35:28;;;;;;;;;;;22.50;77.20;;;;;;4964441;28;19926;-66
2023/05/05 13:37:54;;;;;;;;;;;22.40;78.70;;;;;;4967421;28;19918;-65
2023/05/05 13:40:20;;;;;;;;;;;22.50;83.10;;;;;;4959246;28;19932;-65
2023/05/05 13:42:45;;;;;;;;;;;22.70;81.70;;;;;;4972327;28;19967;-65
2023/05/05 13:45:12;;;;;;;;;;;22.70;79.90;;;;;;4958102;28;20008;-65
2023/05/05 13:47:39;;;;;;;;;;;22.80;77.80;;;;;;4965442;28;19991;-67
2023/05/05 13:50:06;;;;;;;;;;;22.70;74.70;;;;;;4952768;28;20288;-67
2023/05/05 13:52:31;;;;;;;;;;;22.70;76.40;;;;;;4966754;28;19918;-67
2023/05/05 13:54:57;;;;;;;;;;;22.70;77.90;;;;;;4969081;28;20375;-66
2023/05/05 13:57:22;;;;;;;;;;;22.60;74.40;;;;;;4971174;28;20279;-66
2023/05/05 13:59:48;;;;;;;;;;;22.50;78.30;;;;;;4971941;28;20009;-66
2023/05/05 14:02:13;;;;;;;;;;;22.60;76.10;;;;;;4966077;28;20012;-66
2023/05/05 14:04:40;;;;;;;;;;;22.60;75.90;;;;;;4962399;28;21457;-66
2023/05/05 14:07:05;;;;;;;;;;;22.40;73.70;;;;;;4961692;28;19926;-66
2023/05/05 14:09:31;;;;;;;;;;;22.20;74.40;;;;;;4966604;28;19969;-65
2023/05/05 14:11:57;;;;;;;;;;;22.10;75.90;;;;;;4969473;28;19918;-65
2023/05/05 14:14:23;;;;;;;;;;;22.10;76.70;;;;;;4957235;28;20618;-65